sensor_id;sensor_type;location;lat;lon;timestamp;P1;durP1;ratioP1;P2;durP2;ratioP2
56481;SDS011;42384;45.186;19.958;2022-12-07T00:00:05;33.70;;;21.58;;
56481;SDS011;42384;45.186;19.958;2022-12-07T00:02:31;30.67;;;19.95;;
56481;SDS011;42384;45.186;19.958;2022-12-07T00:04:57;30.10;;;19.88;;
56481;SDS011;42384;45.186;19.958;2022-12-07T00:07:23;27.25;;;18.75;;
56481;SDS011;42384;45.186;19.958;2022-12-07T00:09:49;102.60;;;22.65;;
56481;SDS011;42384;45.186;19.958;2022-12-07T00:12:15;39.40;;;20.50;;
56481;SDS011;42384;45.186;19.958;2022-12-07T00:14:41;35.60;;;23.33;;
56481;SDS011;42384;45.186;19.958;2022-12-07T00:17:08;41.75;;;23.85;;
56481;SDS011;42384;45.186;19.958;2022-12-07T00:19:34;41.60;;;24.90;;
56481;SDS011;42384;45.186;19.958;2022-12-07T00:22:00;41.72;;;23.33;;
56481;SDS011;42384;45.186;19.958;2022-12-07T00:24:26;70.45;;;30.27;;
56481;SDS011;42384;45.186;19.958;2022-12-07T00:26:52;55.90;;;27.23;;
56481;SDS011;42384;45.186;19.958;2022-12-07T00:29:19;59.83;;;28.70;;
56481;SDS011;42384;45.186;19.958;2022-12-07T00:31:46;49.08;;;26.08;;
56481;SDS011;42384;45.186;19.958;2022-12-07T00:34:16;38.38;;;23.33;;
56481;SDS011;42384;45.186;19.958;2022-12-07T00:36:43;44.40;;;25.35;;
56481;SDS011;42384;45.186;19.958;2022-12-07T00:39:09;57.08;;;27.08;;
56481;SDS011;42384;45.186;19.958;2022-12-07T00:41:35;55.43;;;29.00;;
56481;SDS011;42384;45.186;19.958;2022-12-07T00:44:02;51.67;;;27.65;;
56481;SDS011;42384;45.186;19.958;2022-12-07T00:46:28;55.33;;;28.50;;
56481;SDS011;42384;45.186;19.958;2022-12-07T00:48:55;49.30;;;27.23;;
56481;SDS011;42384;45.186;19.958;2022-12-07T00:51:23;52.00;;;28.65;;
56481;SDS011;42384;45.186;19.958;2022-12-07T00:53:50;53.05;;;30.45;;
56481;SDS011;42384;45.186;19.958;2022-12-07T00:56:17;48.33;;;27.67;;
56481;SDS011;42384;45.186;19.958;2022-12-07T00:58:49;59.30;;;31.25;;
56481;SDS011;42384;45.186;19.958;2022-12-07T01:01:15;52.63;;;29.60;;
56481;SDS011;42384;45.186;19.958;2022-12-07T01:03:41;55.70;;;30.25;;
56481;SDS011;42384;45.186;19.958;2022-12-07T01:06:07;71.10;;;30.02;;
56481;SDS011;42384;45.186;19.958;2022-12-07T01:08:34;65.45;;;26.65;;
56481;SDS011;42384;45.186;19.958;2022-12-07T01:11:01;113.80;;;26.27;;
56481;SDS011;42384;45.186;19.958;2022-12-07T01:13:28;41.83;;;24.17;;
56481;SDS011;42384;45.186;19.958;2022-12-07T01:15:56;49.90;;;25.83;;
56481;SDS011;42384;45.186;19.958;2022-12-07T01:18:23;48.28;;;25.73;;
56481;SDS011;42384;45.186;19.958;2022-12-07T01:23:27;87.43;;;28.90;;
56481;SDS011;42384;45.186;19.958;2022-12-07T01:25:55;64.15;;;28.52;;
56481;SDS011;42384;45.186;19.958;2022-12-07T01:28:21;114.55;;;30.63;;
56481;SDS011;42384;45.186;19.958;2022-12-07T01:33:23;151.27;;;33.00;;
56481;SDS011;42384;45.186;19.958;2022-12-07T01:35:49;78.68;;;30.00;;
56481;SDS011;42384;45.186;19.958;2022-12-07T01:38:15;84.57;;;29.90;;
56481;SDS011;42384;45.186;19.958;2022-12-07T01:40:41;68.32;;;29.25;;
56481;SDS011;42384;45.186;19.958;2022-12-07T01:43:13;64.38;;;30.38;;
56481;SDS011;42384;45.186;19.958;2022-12-07T01:45:41;56.33;;;30.30;;
56481;SDS011;42384;45.186;19.958;2022-12-07T01:48:08;56.15;;;29.17;;
56481;SDS011;42384;45.186;19.958;2022-12-07T01:50:35;56.00;;;30.90;;
56481;SDS011;42384;45.186;19.958;2022-12-07T01:53:02;57.97;;;29.83;;
56481;SDS011;42384;45.186;19.958;2022-12-07T01:55:30;54.63;;;28.77;;
56481;SDS011;42384;45.186;19.958;2022-12-07T01:57:56;52.83;;;29.13;;
56481;SDS011;42384;45.186;19.958;2022-12-07T02:00:22;57.03;;;29.47;;
56481;SDS011;42384;45.186;19.958;2022-12-07T02:05:18;48.58;;;28.23;;
56481;SDS011;42384;45.186;19.958;2022-12-07T02:07:45;48.63;;;28.20;;
56481;SDS011;42384;45.186;19.958;2022-12-07T02:10:18;50.50;;;26.90;;
56481;SDS011;42384;45.186;19.958;2022-12-07T02:12:45;56.03;;;28.42;;
56481;SDS011;42384;45.186;19.958;2022-12-07T02:15:13;68.43;;;30.05;;
56481;SDS011;42384;45.186;19.958;2022-12-07T02:28:19;46.95;;;27.23;;
56481;SDS011;42384;45.186;19.958;2022-12-07T02:30:49;43.70;;;25.58;;
56481;SDS011;42384;45.186;19.958;2022-12-07T02:33:19;39.22;;;23.65;;
56481;SDS011;42384;45.186;19.958;2022-12-07T02:38:26;49.60;;;27.83;;
56481;SDS011;42384;45.186;19.958;2022-12-07T02:43:25;57.97;;;28.13;;
56481;SDS011;42384;45.186;19.958;2022-12-07T02:45:52;57.20;;;27.70;;
56481;SDS011;42384;45.186;19.958;2022-12-07T02:48:19;53.08;;;26.58;;
56481;SDS011;42384;45.186;19.958;2022-12-07T02:50:50;46.50;;;27.20;;
56481;SDS011;42384;45.186;19.958;2022-12-07T02:53:32;41.75;;;24.73;;
56481;SDS011;42384;45.186;19.958;2022-12-07T02:56:01;99.03;;;29.65;;
56481;SDS011;42384;45.186;19.958;2022-12-07T03:01:07;48.15;;;27.27;;
56481;SDS011;42384;45.186;19.958;2022-12-07T03:03:35;49.57;;;26.90;;
56481;SDS011;42384;45.186;19.958;2022-12-07T03:08:47;77.60;;;28.60;;
56481;SDS011;42384;45.186;19.958;2022-12-07T03:11:16;59.75;;;29.10;;
56481;SDS011;42384;45.186;19.958;2022-12-07T03:16:23;57.17;;;28.88;;
56481;SDS011;42384;45.186;19.958;2022-12-07T03:21:25;44.92;;;27.13;;
56481;SDS011;42384;45.186;19.958;2022-12-07T03:23:54;46.78;;;27.38;;
56481;SDS011;42384;45.186;19.958;2022-12-07T03:26:22;49.75;;;28.13;;
56481;SDS011;42384;45.186;19.958;2022-12-07T03:28:52;77.38;;;34.25;;
56481;SDS011;42384;45.186;19.958;2022-12-07T03:31:21;62.25;;;33.47;;
56481;SDS011;42384;45.186;19.958;2022-12-07T03:33:49;90.93;;;34.50;;
56481;SDS011;42384;45.186;19.958;2022-12-07T03:36:23;73.90;;;33.63;;
56481;SDS011;42384;45.186;19.958;2022-12-07T03:38:54;54.33;;;30.55;;
56481;SDS011;42384;45.186;19.958;2022-12-07T03:41:22;47.30;;;28.58;;
56481;SDS011;42384;45.186;19.958;2022-12-07T03:43:49;45.28;;;24.85;;
56481;SDS011;42384;45.186;19.958;2022-12-07T03:46:20;44.60;;;27.27;;
56481;SDS011;42384;45.186;19.958;2022-12-07T03:48:58;38.83;;;23.75;;
56481;SDS011;42384;45.186;19.958;2022-12-07T03:51:28;39.83;;;24.13;;
56481;SDS011;42384;45.186;19.958;2022-12-07T03:54:02;44.47;;;26.52;;
56481;SDS011;42384;45.186;19.958;2022-12-07T03:56:31;40.22;;;25.55;;
56481;SDS011;42384;45.186;19.958;2022-12-07T03:58:58;48.65;;;29.90;;
56481;SDS011;42384;45.186;19.958;2022-12-07T04:01:24;46.15;;;27.80;;
56481;SDS011;42384;45.186;19.958;2022-12-07T04:03:51;40.63;;;24.75;;
56481;SDS011;42384;45.186;19.958;2022-12-07T04:06:17;51.20;;;31.23;;
56481;SDS011;42384;45.186;19.958;2022-12-07T04:08:43;44.95;;;27.65;;
56481;SDS011;42384;45.186;19.958;2022-12-07T04:11:10;38.90;;;24.37;;
56481;SDS011;42384;45.186;19.958;2022-12-07T04:13:36;38.28;;;23.58;;
56481;SDS011;42384;45.186;19.958;2022-12-07T04:16:22;44.63;;;24.08;;
56481;SDS011;42384;45.186;19.958;2022-12-07T04:18:49;41.67;;;23.97;;
56481;SDS011;42384;45.186;19.958;2022-12-07T04:21:15;46.83;;;23.07;;
56481;SDS011;42384;45.186;19.958;2022-12-07T04:23:41;49.00;;;23.63;;
56481;SDS011;42384;45.186;19.958;2022-12-07T04:26:07;51.80;;;24.02;;
56481;SDS011;42384;45.186;19.958;2022-12-07T04:28:34;49.03;;;21.85;;
56481;SDS011;42384;45.186;19.958;2022-12-07T04:31:00;46.03;;;21.67;;
56481;SDS011;42384;45.186;19.958;2022-12-07T04:33:26;47.35;;;21.98;;
56481;SDS011;42384;45.186;19.958;2022-12-07T04:35:52;50.67;;;20.65;;
56481;SDS011;42384;45.186;19.958;2022-12-07T04:38:18;44.60;;;19.20;;
56481;SDS011;42384;45.186;19.958;2022-12-07T04:40:45;44.80;;;18.98;;
56481;SDS011;42384;45.186;19.958;2022-12-07T04:43:11;48.72;;;20.33;;
56481;SDS011;42384;45.186;19.958;2022-12-07T04:45:37;50.00;;;23.58;;
56481;SDS011;42384;45.186;19.958;2022-12-07T04:48:04;49.37;;;27.40;;
56481;SDS011;42384;45.186;19.958;2022-12-07T04:50:30;50.87;;;28.17;;
56481;SDS011;42384;45.186;19.958;2022-12-07T04:52:56;53.08;;;28.17;;
56481;SDS011;42384;45.186;19.958;2022-12-07T04:55:22;55.78;;;31.63;;
56481;SDS011;42384;45.186;19.958;2022-12-07T04:57:48;56.08;;;32.13;;
56481;SDS011;42384;45.186;19.958;2022-12-07T05:00:15;163.82;;;36.65;;
56481;SDS011;42384;45.186;19.958;2022-12-07T05:02:41;51.58;;;31.80;;
56481;SDS011;42384;45.186;19.958;2022-12-07T05:05:08;50.43;;;31.30;;
56481;SDS011;42384;45.186;19.958;2022-12-07T05:07:34;59.17;;;33.17;;
56481;SDS011;42384;45.186;19.958;2022-12-07T05:10:00;52.60;;;31.13;;
56481;SDS011;42384;45.186;19.958;2022-12-07T05:12:26;52.80;;;32.13;;
56481;SDS011;42384;45.186;19.958;2022-12-07T05:14:52;55.95;;;31.85;;
56481;SDS011;42384;45.186;19.958;2022-12-07T05:17:19;52.20;;;30.80;;
56481;SDS011;42384;45.186;19.958;2022-12-07T05:19:45;53.75;;;30.77;;
56481;SDS011;42384;45.186;19.958;2022-12-07T05:22:11;56.50;;;30.75;;
56481;SDS011;42384;45.186;19.958;2022-12-07T05:24:38;54.55;;;28.80;;
56481;SDS011;42384;45.186;19.958;2022-12-07T05:27:04;46.08;;;26.33;;
56481;SDS011;42384;45.186;19.958;2022-12-07T05:29:31;49.07;;;25.33;;
56481;SDS011;42384;45.186;19.958;2022-12-07T05:31:57;46.17;;;25.25;;
56481;SDS011;42384;45.186;19.958;2022-12-07T05:34:23;48.03;;;23.40;;
56481;SDS011;42384;45.186;19.958;2022-12-07T05:36:50;45.80;;;24.20;;
56481;SDS011;42384;45.186;19.958;2022-12-07T05:39:16;46.10;;;24.08;;
56481;SDS011;42384;45.186;19.958;2022-12-07T05:41:42;43.00;;;23.57;;
56481;SDS011;42384;45.186;19.958;2022-12-07T05:44:27;47.67;;;23.08;;
56481;SDS011;42384;45.186;19.958;2022-12-07T05:46:54;45.35;;;23.95;;
56481;SDS011;42384;45.186;19.958;2022-12-07T05:49:20;46.03;;;23.13;;
56481;SDS011;42384;45.186;19.958;2022-12-07T05:51:46;43.73;;;22.57;;
56481;SDS011;42384;45.186;19.958;2022-12-07T05:54:12;49.10;;;24.23;;
56481;SDS011;42384;45.186;19.958;2022-12-07T05:56:39;43.55;;;23.23;;
56481;SDS011;42384;45.186;19.958;2022-12-07T05:59:05;44.10;;;22.77;;
56481;SDS011;42384;45.186;19.958;2022-12-07T06:01:54;45.58;;;22.17;;
56481;SDS011;42384;45.186;19.958;2022-12-07T06:04:21;43.97;;;22.75;;
56481;SDS011;42384;45.186;19.958;2022-12-07T06:06:47;40.33;;;21.20;;
56481;SDS011;42384;45.186;19.958;2022-12-07T06:09:14;42.37;;;21.97;;
56481;SDS011;42384;45.186;19.958;2022-12-07T06:11:41;46.22;;;21.08;;
56481;SDS011;42384;45.186;19.958;2022-12-07T06:14:26;45.22;;;22.25;;
56481;SDS011;42384;45.186;19.958;2022-12-07T06:16:52;41.55;;;21.35;;
56481;SDS011;42384;45.186;19.958;2022-12-07T06:19:18;41.07;;;21.17;;
56481;SDS011;42384;45.186;19.958;2022-12-07T06:21:44;45.60;;;22.30;;
56481;SDS011;42384;45.186;19.958;2022-12-07T06:24:11;37.65;;;19.80;;
56481;SDS011;42384;45.186;19.958;2022-12-07T06:29:04;35.45;;;18.30;;
56481;SDS011;42384;45.186;19.958;2022-12-07T06:31:30;39.23;;;20.03;;
56481;SDS011;42384;45.186;19.958;2022-12-07T06:33:58;37.97;;;20.27;;
56481;SDS011;42384;45.186;19.958;2022-12-07T06:36:24;39.80;;;19.23;;
56481;SDS011;42384;45.186;19.958;2022-12-07T06:38:50;38.33;;;19.50;;
56481;SDS011;42384;45.186;19.958;2022-12-07T06:41:17;37.78;;;19.25;;
56481;SDS011;42384;45.186;19.958;2022-12-07T06:43:43;40.93;;;20.13;;
56481;SDS011;42384;45.186;19.958;2022-12-07T06:46:09;32.40;;;17.90;;
56481;SDS011;42384;45.186;19.958;2022-12-07T06:48:36;37.17;;;19.70;;
56481;SDS011;42384;45.186;19.958;2022-12-07T06:51:02;34.90;;;20.13;;
56481;SDS011;42384;45.186;19.958;2022-12-07T06:53:28;38.37;;;20.00;;
56481;SDS011;42384;45.186;19.958;2022-12-07T06:55:54;38.30;;;20.30;;
56481;SDS011;42384;45.186;19.958;2022-12-07T06:58:21;39.47;;;20.77;;
56481;SDS011;42384;45.186;19.958;2022-12-07T07:00:47;42.03;;;21.47;;
56481;SDS011;42384;45.186;19.958;2022-12-07T07:03:14;52.00;;;26.58;;
56481;SDS011;42384;45.186;19.958;2022-12-07T07:05:41;50.23;;;24.60;;
56481;SDS011;42384;45.186;19.958;2022-12-07T07:08:07;62.47;;;27.02;;
56481;SDS011;42384;45.186;19.958;2022-12-07T07:10:34;53.92;;;26.35;;
56481;SDS011;42384;45.186;19.958;2022-12-07T07:13:00;76.40;;;37.13;;
56481;SDS011;42384;45.186;19.958;2022-12-07T07:15:26;48.85;;;24.00;;
56481;SDS011;42384;45.186;19.958;2022-12-07T07:17:53;41.47;;;22.63;;
56481;SDS011;42384;45.186;19.958;2022-12-07T07:20:19;42.53;;;21.47;;
56481;SDS011;42384;45.186;19.958;2022-12-07T07:22:45;40.60;;;22.60;;
56481;SDS011;42384;45.186;19.958;2022-12-07T07:25:12;39.87;;;22.50;;
56481;SDS011;42384;45.186;19.958;2022-12-07T07:27:38;38.50;;;22.40;;
56481;SDS011;42384;45.186;19.958;2022-12-07T07:30:04;98.65;;;33.47;;
56481;SDS011;42384;45.186;19.958;2022-12-07T07:32:31;51.75;;;28.15;;
56481;SDS011;42384;45.186;19.958;2022-12-07T07:34:57;52.30;;;27.73;;
56481;SDS011;42384;45.186;19.958;2022-12-07T07:37:23;50.00;;;26.80;;
56481;SDS011;42384;45.186;19.958;2022-12-07T07:39:49;49.10;;;27.20;;
56481;SDS011;42384;45.186;19.958;2022-12-07T07:42:16;50.95;;;27.00;;
56481;SDS011;42384;45.186;19.958;2022-12-07T07:44:42;48.92;;;26.83;;
56481;SDS011;42384;45.186;19.958;2022-12-07T07:47:08;49.13;;;27.20;;
56481;SDS011;42384;45.186;19.958;2022-12-07T07:49:35;46.95;;;26.67;;
56481;SDS011;42384;45.186;19.958;2022-12-07T07:52:01;49.67;;;26.67;;
56481;SDS011;42384;45.186;19.958;2022-12-07T07:54:27;56.38;;;29.17;;
56481;SDS011;42384;45.186;19.958;2022-12-07T07:56:53;54.58;;;29.05;;
56481;SDS011;42384;45.186;19.958;2022-12-07T07:59:20;52.92;;;29.35;;
56481;SDS011;42384;45.186;19.958;2022-12-07T08:01:46;73.40;;;34.42;;
56481;SDS011;42384;45.186;19.958;2022-12-07T08:04:12;69.22;;;36.20;;
56481;SDS011;42384;45.186;19.958;2022-12-07T08:06:39;76.32;;;37.72;;
56481;SDS011;42384;45.186;19.958;2022-12-07T08:09:07;71.35;;;36.97;;
56481;SDS011;42384;45.186;19.958;2022-12-07T08:11:33;64.47;;;33.83;;
56481;SDS011;42384;45.186;19.958;2022-12-07T08:14:00;62.95;;;33.40;;
56481;SDS011;42384;45.186;19.958;2022-12-07T08:16:26;66.00;;;34.70;;
56481;SDS011;42384;45.186;19.958;2022-12-07T08:18:52;70.45;;;35.70;;
56481;SDS011;42384;45.186;19.958;2022-12-07T08:21:19;76.13;;;37.00;;
56481;SDS011;42384;45.186;19.958;2022-12-07T08:23:45;71.80;;;36.55;;
56481;SDS011;42384;45.186;19.958;2022-12-07T08:26:12;77.45;;;41.90;;
56481;SDS011;42384;45.186;19.958;2022-12-07T08:31:06;74.25;;;38.40;;
56481;SDS011;42384;45.186;19.958;2022-12-07T08:33:34;73.72;;;38.47;;
56481;SDS011;42384;45.186;19.958;2022-12-07T08:36:01;71.85;;;38.83;;
56481;SDS011;42384;45.186;19.958;2022-12-07T08:38:27;79.20;;;41.17;;
56481;SDS011;42384;45.186;19.958;2022-12-07T08:40:54;78.90;;;39.25;;
56481;SDS011;42384;45.186;19.958;2022-12-07T08:43:21;76.57;;;39.22;;
56481;SDS011;42384;45.186;19.958;2022-12-07T08:45:53;79.10;;;39.50;;
56481;SDS011;42384;45.186;19.958;2022-12-07T08:48:20;78.40;;;40.17;;
56481;SDS011;42384;45.186;19.958;2022-12-07T08:50:49;70.55;;;37.90;;
56481;SDS011;42384;45.186;19.958;2022-12-07T08:53:16;74.72;;;37.08;;
56481;SDS011;42384;45.186;19.958;2022-12-07T08:55:43;71.90;;;34.75;;
56481;SDS011;42384;45.186;19.958;2022-12-07T09:00:36;65.30;;;34.03;;
56481;SDS011;42384;45.186;19.958;2022-12-07T09:03:02;67.15;;;35.22;;
56481;SDS011;42384;45.186;19.958;2022-12-07T09:05:28;63.42;;;34.30;;
56481;SDS011;42384;45.186;19.958;2022-12-07T09:07:55;65.40;;;34.87;;
56481;SDS011;42384;45.186;19.958;2022-12-07T09:10:23;67.38;;;34.90;;
56481;SDS011;42384;45.186;19.958;2022-12-07T09:12:49;64.75;;;34.10;;
56481;SDS011;42384;45.186;19.958;2022-12-07T09:15:16;60.05;;;31.85;;
56481;SDS011;42384;45.186;19.958;2022-12-07T09:17:42;56.80;;;31.08;;
56481;SDS011;42384;45.186;19.958;2022-12-07T09:20:08;52.33;;;29.60;;
56481;SDS011;42384;45.186;19.958;2022-12-07T09:22:34;52.05;;;29.73;;
56481;SDS011;42384;45.186;19.958;2022-12-07T09:25:01;65.38;;;32.22;;
56481;SDS011;42384;45.186;19.958;2022-12-07T09:27:27;65.68;;;32.55;;
56481;SDS011;42384;45.186;19.958;2022-12-07T09:29:54;60.20;;;33.37;;
56481;SDS011;42384;45.186;19.958;2022-12-07T09:32:20;66.67;;;34.37;;
56481;SDS011;42384;45.186;19.958;2022-12-07T09:34:47;63.17;;;33.27;;
56481;SDS011;42384;45.186;19.958;2022-12-07T09:37:13;62.63;;;33.95;;
56481;SDS011;42384;45.186;19.958;2022-12-07T09:39:39;70.27;;;35.70;;
56481;SDS011;42384;45.186;19.958;2022-12-07T09:42:06;77.45;;;37.95;;
56481;SDS011;42384;45.186;19.958;2022-12-07T09:44:33;78.85;;;39.60;;
56481;SDS011;42384;45.186;19.958;2022-12-07T09:47:01;85.82;;;42.25;;
56481;SDS011;42384;45.186;19.958;2022-12-07T09:49:28;79.20;;;38.85;;
56481;SDS011;42384;45.186;19.958;2022-12-07T09:51:59;54.95;;;30.40;;
56481;SDS011;42384;45.186;19.958;2022-12-07T09:54:26;81.40;;;30.00;;
56481;SDS011;42384;45.186;19.958;2022-12-07T09:56:54;46.78;;;26.83;;
56481;SDS011;42384;45.186;19.958;2022-12-07T09:59:20;44.83;;;26.45;;
56481;SDS011;42384;45.186;19.958;2022-12-07T10:01:47;47.85;;;27.63;;
56481;SDS011;42384;45.186;19.958;2022-12-07T10:04:47;54.47;;;28.77;;
56481;SDS011;42384;45.186;19.958;2022-12-07T10:07:06;56.13;;;29.92;;
56481;SDS011;42384;45.186;19.958;2022-12-07T10:09:32;59.58;;;30.38;;
56481;SDS011;42384;45.186;19.958;2022-12-07T10:12:04;53.75;;;29.38;;
56481;SDS011;42384;45.186;19.958;2022-12-07T10:14:32;51.20;;;30.73;;
56481;SDS011;42384;45.186;19.958;2022-12-07T10:16:58;54.17;;;31.17;;
56481;SDS011;42384;45.186;19.958;2022-12-07T10:19:29;57.08;;;30.85;;
56481;SDS011;42384;45.186;19.958;2022-12-07T10:22:15;62.63;;;30.83;;
56481;SDS011;42384;45.186;19.958;2022-12-07T10:24:42;60.55;;;33.47;;
56481;SDS011;42384;45.186;19.958;2022-12-07T10:27:29;72.10;;;37.33;;
56481;SDS011;42384;45.186;19.958;2022-12-07T10:29:56;64.65;;;34.85;;
56481;SDS011;42384;45.186;19.958;2022-12-07T10:32:28;59.10;;;31.40;;
56481;SDS011;42384;45.186;19.958;2022-12-07T10:38:00;58.38;;;30.83;;
56481;SDS011;42384;45.186;19.958;2022-12-07T10:40:30;54.22;;;31.50;;
56481;SDS011;42384;45.186;19.958;2022-12-07T10:53:48;66.88;;;34.22;;
56481;SDS011;42384;45.186;19.958;2022-12-07T11:01:43;65.78;;;35.90;;
56481;SDS011;42384;45.186;19.958;2022-12-07T11:06:48;67.72;;;37.30;;
56481;SDS011;42384;45.186;19.958;2022-12-07T11:12:36;59.60;;;30.95;;
56481;SDS011;42384;45.186;19.958;2022-12-07T11:17:18;54.78;;;31.30;;
56481;SDS011;42384;45.186;19.958;2022-12-07T11:19:55;58.95;;;31.73;;
56481;SDS011;42384;45.186;19.958;2022-12-07T11:22:40;57.65;;;33.47;;
56481;SDS011;42384;45.186;19.958;2022-12-07T11:25:27;65.20;;;33.47;;
56481;SDS011;42384;45.186;19.958;2022-12-07T11:28:03;49.67;;;28.83;;
56481;SDS011;42384;45.186;19.958;2022-12-07T11:30:34;54.47;;;31.03;;
56481;SDS011;42384;45.186;19.958;2022-12-07T11:35:43;48.40;;;26.90;;
56481;SDS011;42384;45.186;19.958;2022-12-07T11:38:13;47.38;;;26.48;;
56481;SDS011;42384;45.186;19.958;2022-12-07T11:40:40;46.17;;;25.48;;
56481;SDS011;42384;45.186;19.958;2022-12-07T11:43:14;47.70;;;24.73;;
56481;SDS011;42384;45.186;19.958;2022-12-07T11:45:42;50.10;;;28.10;;
56481;SDS011;42384;45.186;19.958;2022-12-07T11:48:43;49.78;;;27.85;;
56481;SDS011;42384;45.186;19.958;2022-12-07T11:51:02;51.08;;;27.42;;
56481;SDS011;42384;45.186;19.958;2022-12-07T11:53:32;49.15;;;29.13;;
56481;SDS011;42384;45.186;19.958;2022-12-07T12:01:02;45.00;;;26.33;;
56481;SDS011;42384;45.186;19.958;2022-12-07T12:03:35;43.58;;;25.73;;
56481;SDS011;42384;45.186;19.958;2022-12-07T12:06:04;48.53;;;27.73;;
56481;SDS011;42384;45.186;19.958;2022-12-07T12:08:31;49.75;;;28.38;;
56481;SDS011;42384;45.186;19.958;2022-12-07T12:19:18;52.67;;;28.60;;
56481;SDS011;42384;45.186;19.958;2022-12-07T12:21:46;48.63;;;27.83;;
56481;SDS011;42384;45.186;19.958;2022-12-07T12:26:40;51.97;;;28.75;;
56481;SDS011;42384;45.186;19.958;2022-12-07T12:29:26;57.47;;;30.05;;
56481;SDS011;42384;45.186;19.958;2022-12-07T12:32:07;56.58;;;29.92;;
56481;SDS011;42384;45.186;19.958;2022-12-07T12:45:18;57.22;;;32.42;;
56481;SDS011;42384;45.186;19.958;2022-12-07T12:48:01;55.80;;;31.33;;
56481;SDS011;42384;45.186;19.958;2022-12-07T12:52:55;54.72;;;31.00;;
56481;SDS011;42384;45.186;19.958;2022-12-07T13:00:44;59.03;;;32.88;;
56481;SDS011;42384;45.186;19.958;2022-12-07T13:05:37;69.55;;;35.65;;
56481;SDS011;42384;45.186;19.958;2022-12-07T13:08:15;55.35;;;31.85;;
56481;SDS011;42384;45.186;19.958;2022-12-07T13:10:44;54.85;;;30.63;;
56481;SDS011;42384;45.186;19.958;2022-12-07T13:23:30;54.92;;;31.92;;
56481;SDS011;42384;45.186;19.958;2022-12-07T13:25:59;51.90;;;31.30;;
56481;SDS011;42384;45.186;19.958;2022-12-07T13:28:32;53.13;;;32.00;;
56481;SDS011;42384;45.186;19.958;2022-12-07T13:31:12;54.10;;;31.38;;
56481;SDS011;42384;45.186;19.958;2022-12-07T13:33:40;55.85;;;31.80;;
56481;SDS011;42384;45.186;19.958;2022-12-07T13:36:26;51.42;;;29.20;;
56481;SDS011;42384;45.186;19.958;2022-12-07T13:38:54;54.40;;;29.75;;
56481;SDS011;42384;45.186;19.958;2022-12-07T13:41:27;63.25;;;36.63;;
56481;SDS011;42384;45.186;19.958;2022-12-07T13:43:59;56.13;;;31.83;;
56481;SDS011;42384;45.186;19.958;2022-12-07T13:46:31;60.90;;;34.13;;
56481;SDS011;42384;45.186;19.958;2022-12-07T13:48:58;54.17;;;31.70;;
56481;SDS011;42384;45.186;19.958;2022-12-07T13:51:25;52.10;;;32.27;;
56481;SDS011;42384;45.186;19.958;2022-12-07T13:53:53;44.30;;;28.38;;
56481;SDS011;42384;45.186;19.958;2022-12-07T13:56:24;48.50;;;30.25;;
56481;SDS011;42384;45.186;19.958;2022-12-07T13:58:52;46.85;;;29.25;;
56481;SDS011;42384;45.186;19.958;2022-12-07T14:01:18;53.53;;;29.70;;
56481;SDS011;42384;45.186;19.958;2022-12-07T14:03:44;47.00;;;27.90;;
56481;SDS011;42384;45.186;19.958;2022-12-07T14:06:15;42.30;;;26.93;;
56481;SDS011;42384;45.186;19.958;2022-12-07T14:08:42;44.72;;;26.98;;
56481;SDS011;42384;45.186;19.958;2022-12-07T14:11:12;40.45;;;26.63;;
56481;SDS011;42384;45.186;19.958;2022-12-07T14:13:42;43.92;;;26.75;;
56481;SDS011;42384;45.186;19.958;2022-12-07T14:16:26;42.10;;;25.38;;
56481;SDS011;42384;45.186;19.958;2022-12-07T14:18:54;44.60;;;27.80;;
56481;SDS011;42384;45.186;19.958;2022-12-07T14:21:22;47.42;;;31.10;;
56481;SDS011;42384;45.186;19.958;2022-12-07T14:26:33;39.70;;;24.52;;
56481;SDS011;42384;45.186;19.958;2022-12-07T14:31:44;39.63;;;23.35;;
56481;SDS011;42384;45.186;19.958;2022-12-07T14:34:13;34.60;;;22.33;;
56481;SDS011;42384;45.186;19.958;2022-12-07T14:36:39;36.92;;;23.10;;
56481;SDS011;42384;45.186;19.958;2022-12-07T14:39:06;35.90;;;22.33;;
56481;SDS011;42384;45.186;19.958;2022-12-07T14:41:32;35.75;;;22.23;;
56481;SDS011;42384;45.186;19.958;2022-12-07T14:44:18;36.25;;;21.17;;
56481;SDS011;42384;45.186;19.958;2022-12-07T14:46:45;34.05;;;22.05;;
56481;SDS011;42384;45.186;19.958;2022-12-07T14:49:11;29.33;;;19.30;;
56481;SDS011;42384;45.186;19.958;2022-12-07T14:51:38;33.00;;;20.07;;
56481;SDS011;42384;45.186;19.958;2022-12-07T14:54:05;36.97;;;21.58;;
56481;SDS011;42384;45.186;19.958;2022-12-07T14:58:58;31.95;;;21.45;;
56481;SDS011;42384;45.186;19.958;2022-12-07T15:01:24;30.48;;;20.50;;
56481;SDS011;42384;45.186;19.958;2022-12-07T15:03:50;38.20;;;23.63;;
56481;SDS011;42384;45.186;19.958;2022-12-07T15:06:17;47.65;;;32.80;;
56481;SDS011;42384;45.186;19.958;2022-12-07T15:08:44;42.28;;;28.55;;
56481;SDS011;42384;45.186;19.958;2022-12-07T15:11:14;40.70;;;26.03;;
56481;SDS011;42384;45.186;19.958;2022-12-07T15:13:40;37.90;;;24.00;;
56481;SDS011;42384;45.186;19.958;2022-12-07T15:16:25;36.63;;;23.13;;
56481;SDS011;42384;45.186;19.958;2022-12-07T15:18:52;36.70;;;20.88;;
56481;SDS011;42384;45.186;19.958;2022-12-07T15:21:18;33.93;;;22.17;;
56481;SDS011;42384;45.186;19.958;2022-12-07T15:23:45;42.33;;;22.60;;
56481;SDS011;42384;45.186;19.958;2022-12-07T15:26:12;39.15;;;23.33;;
56481;SDS011;42384;45.186;19.958;2022-12-07T15:28:39;37.08;;;22.50;;
56481;SDS011;42384;45.186;19.958;2022-12-07T15:31:11;39.28;;;23.85;;
56481;SDS011;42384;45.186;19.958;2022-12-07T15:33:38;31.83;;;21.90;;
56481;SDS011;42384;45.186;19.958;2022-12-07T15:36:04;36.53;;;22.73;;
56481;SDS011;42384;45.186;19.958;2022-12-07T15:38:31;40.55;;;25.27;;
56481;SDS011;42384;45.186;19.958;2022-12-07T15:40:57;35.80;;;23.52;;
56481;SDS011;42384;45.186;19.958;2022-12-07T15:43:23;45.28;;;25.95;;
56481;SDS011;42384;45.186;19.958;2022-12-07T15:46:08;45.55;;;27.85;;
56481;SDS011;42384;45.186;19.958;2022-12-07T15:48:35;46.60;;;29.03;;
56481;SDS011;42384;45.186;19.958;2022-12-07T15:51:10;48.65;;;29.33;;
56481;SDS011;42384;45.186;19.958;2022-12-07T15:53:36;57.50;;;33.30;;
56481;SDS011;42384;45.186;19.958;2022-12-07T15:56:05;52.50;;;31.30;;
56481;SDS011;42384;45.186;19.958;2022-12-07T15:58:32;50.78;;;30.50;;
56481;SDS011;42384;45.186;19.958;2022-12-07T16:00:58;43.83;;;28.47;;
56481;SDS011;42384;45.186;19.958;2022-12-07T16:03:26;33.83;;;21.83;;
56481;SDS011;42384;45.186;19.958;2022-12-07T16:05:52;34.25;;;21.05;;
56481;SDS011;42384;45.186;19.958;2022-12-07T16:08:19;33.90;;;21.20;;
56481;SDS011;42384;45.186;19.958;2022-12-07T16:10:45;35.38;;;22.23;;
56481;SDS011;42384;45.186;19.958;2022-12-07T16:13:11;34.05;;;21.67;;
56481;SDS011;42384;45.186;19.958;2022-12-07T16:15:41;35.38;;;22.70;;
56481;SDS011;42384;45.186;19.958;2022-12-07T16:18:08;35.22;;;22.50;;
56481;SDS011;42384;45.186;19.958;2022-12-07T16:20:34;38.10;;;22.55;;